sensor_id;sensor_type;location;lat;lon;timestamp;P1;durP1;ratioP1;P2;durP2;ratioP2
5297;SDS011;14738;42.668;23.250;2023-10-19T00:02:07;19.87;;;14.90;;
5297;SDS011;14738;42.668;23.250;2023-10-19T00:04:33;20.10;;;14.97;;
5297;SDS011;14738;42.668;23.250;2023-10-19T00:07:02;21.87;;;15.40;;
5297;SDS011;14738;42.668;23.250;2023-10-19T00:09:31;20.90;;;15.30;;
5297;SDS011;14738;42.668;23.250;2023-10-19T00:12:02;20.63;;;14.53;;
5297;SDS011;14738;42.668;23.250;2023-10-19T00:14:30;20.53;;;15.07;;
5297;SDS011;14738;42.668;23.250;2023-10-19T00:16:57;18.93;;;15.10;;
5297;SDS011;14738;42.668;23.250;2023-10-19T00:19:25;19.10;;;14.60;;
5297;SDS011;14738;42.668;23.250;2023-10-19T00:21:53;19.27;;;14.57;;
5297;SDS011;14738;42.668;23.250;2023-10-19T00:24:33;21.03;;;14.60;;
5297;SDS011;14738;42.668;23.250;2023-10-19T00:26:58;19.20;;;14.20;;
5297;SDS011;14738;42.668;23.250;2023-10-19T00:29:30;22.30;;;14.80;;
5297;SDS011;14738;42.668;23.250;2023-10-19T00:31:59;21.20;;;15.30;;
5297;SDS011;14738;42.668;23.250;2023-10-19T00:34:25;20.83;;;15.87;;
5297;SDS011;14738;42.668;23.250;2023-10-19T00:36:53;20.77;;;14.70;;
5297;SDS011;14738;42.668;23.250;2023-10-19T00:39:20;21.07;;;14.67;;
5297;SDS011;14738;42.668;23.250;2023-10-19T00:41:47;16.70;;;14.00;;
5297;SDS011;14738;42.668;23.250;2023-10-19T00:44:12;18.50;;;14.67;;
5297;SDS011;14738;42.668;23.250;2023-10-19T00:46:47;18.33;;;14.83;;
5297;SDS011;14738;42.668;23.250;2023-10-19T00:49:20;22.57;;;15.30;;
5297;SDS011;14738;42.668;23.250;2023-10-19T00:51:49;22.27;;;16.47;;
5297;SDS011;14738;42.668;23.250;2023-10-19T00:54:18;23.63;;;17.07;;
5297;SDS011;14738;42.668;23.250;2023-10-19T00:57:05;29.97;;;18.67;;
5297;SDS011;14738;42.668;23.250;2023-10-19T00:59:32;27.50;;;18.07;;
5297;SDS011;14738;42.668;23.250;2023-10-19T01:02:07;24.07;;;18.17;;
5297;SDS011;14738;42.668;23.250;2023-10-19T01:04:45;22.30;;;17.57;;
5297;SDS011;14738;42.668;23.250;2023-10-19T01:07:17;23.53;;;16.57;;
5297;SDS011;14738;42.668;23.250;2023-10-19T01:09:53;21.93;;;16.63;;
5297;SDS011;14738;42.668;23.250;2023-10-19T01:12:21;19.00;;;13.83;;
5297;SDS011;14738;42.668;23.250;2023-10-19T01:18:09;17.17;;;13.23;;
5297;SDS011;14738;42.668;23.250;2023-10-19T01:20:39;17.27;;;13.80;;
5297;SDS011;14738;42.668;23.250;2023-10-19T01:23:15;21.40;;;16.30;;
5297;SDS011;14738;42.668;23.250;2023-10-19T01:25:51;19.80;;;14.93;;
5297;SDS011;14738;42.668;23.250;2023-10-19T01:28:20;19.83;;;15.60;;
5297;SDS011;14738;42.668;23.250;2023-10-19T01:30:53;16.80;;;13.90;;
5297;SDS011;14738;42.668;23.250;2023-10-19T01:33:19;15.67;;;12.10;;
5297;SDS011;14738;42.668;23.250;2023-10-19T01:35:45;18.50;;;14.03;;
5297;SDS011;14738;42.668;23.250;2023-10-19T01:38:29;19.17;;;13.37;;
5297;SDS011;14738;42.668;23.250;2023-10-19T01:40:59;19.87;;;13.43;;
5297;SDS011;14738;42.668;23.250;2023-10-19T01:43:31;19.53;;;13.40;;
5297;SDS011;14738;42.668;23.250;2023-10-19T01:45:58;19.63;;;13.00;;
5297;SDS011;14738;42.668;23.250;2023-10-19T01:48:29;16.50;;;12.27;;
5297;SDS011;14738;42.668;23.250;2023-10-19T01:51:03;18.00;;;14.37;;
5297;SDS011;14738;42.668;23.250;2023-10-19T01:53:30;21.33;;;13.40;;
5297;SDS011;14738;42.668;23.250;2023-10-19T01:55:57;20.23;;;14.63;;
5297;SDS011;14738;42.668;23.250;2023-10-19T01:58:26;22.17;;;15.03;;
5297;SDS011;14738;42.668;23.250;2023-10-19T02:00:54;24.33;;;15.97;;
5297;SDS011;14738;42.668;23.250;2023-10-19T02:03:21;23.67;;;15.60;;
5297;SDS011;14738;42.668;23.250;2023-10-19T02:05:50;23.93;;;14.30;;
5297;SDS011;14738;42.668;23.250;2023-10-19T02:08:23;18.10;;;14.40;;
5297;SDS011;14738;42.668;23.250;2023-10-19T02:10:51;20.80;;;14.10;;
5297;SDS011;14738;42.668;23.250;2023-10-19T02:13:17;18.83;;;13.17;;
5297;SDS011;14738;42.668;23.250;2023-10-19T02:15:43;16.70;;;12.80;;
5297;SDS011;14738;42.668;23.250;2023-10-19T02:18:09;16.93;;;13.73;;
5297;SDS011;14738;42.668;23.250;2023-10-19T02:20:35;14.90;;;12.60;;
5297;SDS011;14738;42.668;23.250;2023-10-19T02:23:04;15.97;;;12.90;;
5297;SDS011;14738;42.668;23.250;2023-10-19T02:25:30;16.30;;;12.13;;
5297;SDS011;14738;42.668;23.250;2023-10-19T02:28:02;13.97;;;11.33;;
5297;SDS011;14738;42.668;23.250;2023-10-19T02:30:32;14.63;;;12.67;;
5297;SDS011;14738;42.668;23.250;2023-10-19T02:32:59;15.30;;;12.30;;
5297;SDS011;14738;42.668;23.250;2023-10-19T02:35:25;13.63;;;11.17;;
5297;SDS011;14738;42.668;23.250;2023-10-19T02:37:52;12.63;;;11.30;;
5297;SDS011;14738;42.668;23.250;2023-10-19T02:40:18;14.90;;;12.17;;
5297;SDS011;14738;42.668;23.250;2023-10-19T02:42:48;17.70;;;12.53;;
5297;SDS011;14738;42.668;23.250;2023-10-19T02:45:15;18.10;;;13.10;;
5297;SDS011;14738;42.668;23.250;2023-10-19T02:47:44;14.90;;;12.10;;
5297;SDS011;14738;42.668;23.250;2023-10-19T02:50:10;20.17;;;14.63;;
5297;SDS011;14738;42.668;23.250;2023-10-19T02:52:41;20.87;;;13.73;;
5297;SDS011;14738;42.668;23.250;2023-10-19T02:55:07;16.20;;;12.13;;
5297;SDS011;14738;42.668;23.250;2023-10-19T02:57:34;16.57;;;12.50;;
5297;SDS011;14738;42.668;23.250;2023-10-19T02:59:59;15.67;;;12.77;;
5297;SDS011;14738;42.668;23.250;2023-10-19T03:02:26;12.80;;;10.70;;
5297;SDS011;14738;42.668;23.250;2023-10-19T03:04:54;15.57;;;10.60;;
5297;SDS011;14738;42.668;23.250;2023-10-19T03:07:20;22.50;;;12.90;;
5297;SDS011;14738;42.668;23.250;2023-10-19T03:09:45;21.13;;;12.77;;
5297;SDS011;14738;42.668;23.250;2023-10-19T03:12:13;16.73;;;11.30;;
5297;SDS011;14738;42.668;23.250;2023-10-19T03:14:39;16.80;;;12.43;;
5297;SDS011;14738;42.668;23.250;2023-10-19T03:17:06;16.35;;;13.30;;
5297;SDS011;14738;42.668;23.250;2023-10-19T03:19:33;17.43;;;12.60;;
5297;SDS011;14738;42.668;23.250;2023-10-19T03:22:00;16.63;;;12.87;;
5297;SDS011;14738;42.668;23.250;2023-10-19T03:24:25;15.43;;;12.03;;
5297;SDS011;14738;42.668;23.250;2023-10-19T03:27:04;15.20;;;12.43;;
5297;SDS011;14738;42.668;23.250;2023-10-19T03:29:55;16.63;;;13.50;;
5297;SDS011;14738;42.668;23.250;2023-10-19T03:32:21;16.53;;;12.30;;
5297;SDS011;14738;42.668;23.250;2023-10-19T03:34:51;16.07;;;11.20;;
5297;SDS011;14738;42.668;23.250;2023-10-19T03:37:25;17.27;;;11.27;;
5297;SDS011;14738;42.668;23.250;2023-10-19T03:39:53;16.23;;;11.33;;
5297;SDS011;14738;42.668;23.250;2023-10-19T03:42:21;14.40;;;11.07;;
5297;SDS011;14738;42.668;23.250;2023-10-19T03:44:50;21.13;;;13.20;;
5297;SDS011;14738;42.668;23.250;2023-10-19T03:47:18;13.83;;;9.87;;
5297;SDS011;14738;42.668;23.250;2023-10-19T03:49:46;15.93;;;11.37;;
5297;SDS011;14738;42.668;23.250;2023-10-19T03:52:12;18.07;;;13.40;;
5297;SDS011;14738;42.668;23.250;2023-10-19T03:54:38;16.73;;;11.87;;
5297;SDS011;14738;42.668;23.250;2023-10-19T03:57:07;13.90;;;9.80;;
5297;SDS011;14738;42.668;23.250;2023-10-19T03:59:50;14.07;;;10.30;;
5297;SDS011;14738;42.668;23.250;2023-10-19T04:02:21;14.27;;;11.43;;
5297;SDS011;14738;42.668;23.250;2023-10-19T04:04:46;14.33;;;11.03;;
5297;SDS011;14738;42.668;23.250;2023-10-19T04:07:20;17.70;;;11.87;;
5297;SDS011;14738;42.668;23.250;2023-10-19T04:09:49;16.13;;;12.03;;
5297;SDS011;14738;42.668;23.250;2023-10-19T04:12:34;19.73;;;13.27;;
5297;SDS011;14738;42.668;23.250;2023-10-19T04:15:06;17.57;;;12.77;;
5297;SDS011;14738;42.668;23.250;2023-10-19T04:17:42;19.03;;;13.20;;
5297;SDS011;14738;42.668;23.250;2023-10-19T04:20:11;21.90;;;14.47;;
5297;SDS011;14738;42.668;23.250;2023-10-19T04:22:40;21.90;;;14.30;;
5297;SDS011;14738;42.668;23.250;2023-10-19T04:25:05;22.60;;;14.40;;
5297;SDS011;14738;42.668;23.250;2023-10-19T04:27:31;23.57;;;14.93;;
5297;SDS011;14738;42.668;23.250;2023-10-19T04:30:00;21.30;;;14.60;;
5297;SDS011;14738;42.668;23.250;2023-10-19T04:32:26;20.30;;;15.10;;
5297;SDS011;14738;42.668;23.250;2023-10-19T04:34:54;31.67;;;16.10;;
5297;SDS011;14738;42.668;23.250;2023-10-19T04:37:20;24.37;;;15.70;;
5297;SDS011;14738;42.668;23.250;2023-10-19T04:39:48;28.17;;;17.90;;
5297;SDS011;14738;42.668;23.250;2023-10-19T04:42:14;26.77;;;19.33;;
5297;SDS011;14738;42.668;23.250;2023-10-19T04:44:40;30.33;;;18.63;;
5297;SDS011;14738;42.668;23.250;2023-10-19T04:47:06;34.40;;;20.27;;
5297;SDS011;14738;42.668;23.250;2023-10-19T04:49:31;29.70;;;19.97;;
5297;SDS011;14738;42.668;23.250;2023-10-19T04:51:56;31.37;;;19.90;;
5297;SDS011;14738;42.668;23.250;2023-10-19T04:54:22;29.13;;;20.53;;
5297;SDS011;14738;42.668;23.250;2023-10-19T04:56:47;37.60;;;20.37;;
5297;SDS011;14738;42.668;23.250;2023-10-19T04:59:13;30.70;;;19.00;;
5297;SDS011;14738;42.668;23.250;2023-10-19T05:01:38;26.77;;;16.77;;
5297;SDS011;14738;42.668;23.250;2023-10-19T05:04:05;28.23;;;17.60;;
5297;SDS011;14738;42.668;23.250;2023-10-19T05:06:31;28.57;;;21.10;;
5297;SDS011;14738;42.668;23.250;2023-10-19T05:08:56;32.33;;;16.20;;
5297;SDS011;14738;42.668;23.250;2023-10-19T05:11:22;25.23;;;17.27;;
5297;SDS011;14738;42.668;23.250;2023-10-19T05:13:47;23.00;;;16.70;;
5297;SDS011;14738;42.668;23.250;2023-10-19T05:16:13;33.23;;;17.20;;
5297;SDS011;14738;42.668;23.250;2023-10-19T05:18:38;27.93;;;17.73;;
5297;SDS011;14738;42.668;23.250;2023-10-19T05:21:04;28.47;;;18.77;;
5297;SDS011;14738;42.668;23.250;2023-10-19T05:23:30;28.97;;;19.70;;
5297;SDS011;14738;42.668;23.250;2023-10-19T05:26:02;36.17;;;21.83;;
5297;SDS011;14738;42.668;23.250;2023-10-19T05:28:29;29.03;;;19.73;;
5297;SDS011;14738;42.668;23.250;2023-10-19T05:30:55;29.60;;;19.40;;
5297;SDS011;14738;42.668;23.250;2023-10-19T05:33:21;35.90;;;21.80;;
5297;SDS011;14738;42.668;23.250;2023-10-19T05:35:48;32.13;;;21.03;;
5297;SDS011;14738;42.668;23.250;2023-10-19T05:38:14;29.77;;;20.70;;
5297;SDS011;14738;42.668;23.250;2023-10-19T05:40:40;30.60;;;21.50;;
5297;SDS011;14738;42.668;23.250;2023-10-19T05:43:08;37.93;;;24.43;;
5297;SDS011;14738;42.668;23.250;2023-10-19T05:45:33;38.30;;;23.90;;
5297;SDS011;14738;42.668;23.250;2023-10-19T05:48:01;32.00;;;22.17;;
5297;SDS011;14738;42.668;23.250;2023-10-19T05:50:28;37.87;;;22.97;;
5297;SDS011;14738;42.668;23.250;2023-10-19T05:52:54;37.53;;;24.33;;
5297;SDS011;14738;42.668;23.250;2023-10-19T05:55:19;37.03;;;22.33;;
5297;SDS011;14738;42.668;23.250;2023-10-19T05:57:46;40.60;;;24.77;;
5297;SDS011;14738;42.668;23.250;2023-10-19T06:00:12;35.17;;;24.50;;
5297;SDS011;14738;42.668;23.250;2023-10-19T06:02:42;38.23;;;24.70;;
5297;SDS011;14738;42.668;23.250;2023-10-19T06:05:09;36.13;;;22.63;;
5297;SDS011;14738;42.668;23.250;2023-10-19T06:07:35;32.90;;;21.00;;
5297;SDS011;14738;42.668;23.250;2023-10-19T06:10:00;36.30;;;23.47;;
5297;SDS011;14738;42.668;23.250;2023-10-19T06:12:30;45.43;;;26.00;;
5297;SDS011;14738;42.668;23.250;2023-10-19T06:14:56;37.97;;;25.10;;
5297;SDS011;14738;42.668;23.250;2023-10-19T06:17:22;36.00;;;24.20;;
5297;SDS011;14738;42.668;23.250;2023-10-19T06:19:48;35.23;;;24.77;;
5297;SDS011;14738;42.668;23.250;2023-10-19T06:22:13;37.73;;;24.93;;
5297;SDS011;14738;42.668;23.250;2023-10-19T06:24:41;38.20;;;24.50;;
5297;SDS011;14738;42.668;23.250;2023-10-19T06:27:06;35.30;;;24.47;;
5297;SDS011;14738;42.668;23.250;2023-10-19T06:29:32;39.00;;;23.70;;
5297;SDS011;14738;42.668;23.250;2023-10-19T06:31:57;34.70;;;23.40;;
5297;SDS011;14738;42.668;23.250;2023-10-19T06:34:22;41.80;;;25.00;;
5297;SDS011;14738;42.668;23.250;2023-10-19T06:36:48;41.30;;;23.80;;
5297;SDS011;14738;42.668;23.250;2023-10-19T06:39:15;38.33;;;23.67;;
5297;SDS011;14738;42.668;23.250;2023-10-19T06:41:42;38.20;;;24.00;;
5297;SDS011;14738;42.668;23.250;2023-10-19T06:44:08;37.67;;;25.90;;
5297;SDS011;14738;42.668;23.250;2023-10-19T06:46:33;37.73;;;25.17;;
5297;SDS011;14738;42.668;23.250;2023-10-19T06:49:01;36.50;;;24.27;;
5297;SDS011;14738;42.668;23.250;2023-10-19T06:51:26;31.10;;;21.73;;
5297;SDS011;14738;42.668;23.250;2023-10-19T06:53:52;32.63;;;23.10;;
5297;SDS011;14738;42.668;23.250;2023-10-19T06:56:17;32.60;;;22.80;;
5297;SDS011;14738;42.668;23.250;2023-10-19T06:58:43;31.37;;;23.13;;
5297;SDS011;14738;42.668;23.250;2023-10-19T07:01:09;30.33;;;21.97;;
5297;SDS011;14738;42.668;23.250;2023-10-19T07:03:35;30.53;;;22.43;;
5297;SDS011;14738;42.668;23.250;2023-10-19T07:06:00;33.27;;;20.00;;
5297;SDS011;14738;42.668;23.250;2023-10-19T07:08:27;26.97;;;19.50;;
5297;SDS011;14738;42.668;23.250;2023-10-19T07:10:53;31.20;;;20.80;;
5297;SDS011;14738;42.668;23.250;2023-10-19T07:13:19;29.87;;;19.63;;
5297;SDS011;14738;42.668;23.250;2023-10-19T07:15:48;26.73;;;19.67;;
5297;SDS011;14738;42.668;23.250;2023-10-19T07:18:16;28.70;;;21.33;;
5297;SDS011;14738;42.668;23.250;2023-10-19T07:20:42;29.00;;;19.13;;
5297;SDS011;14738;42.668;23.250;2023-10-19T07:23:08;28.77;;;20.03;;
5297;SDS011;14738;42.668;23.250;2023-10-19T07:25:52;32.47;;;20.97;;
5297;SDS011;14738;42.668;23.250;2023-10-19T07:28:19;27.03;;;20.03;;
5297;SDS011;14738;42.668;23.250;2023-10-19T07:30:45;25.77;;;20.27;;
5297;SDS011;14738;42.668;23.250;2023-10-19T07:33:16;27.87;;;20.90;;
5297;SDS011;14738;42.668;23.250;2023-10-19T07:35:42;27.90;;;19.67;;
5297;SDS011;14738;42.668;23.250;2023-10-19T07:38:11;26.60;;;19.67;;
5297;SDS011;14738;42.668;23.250;2023-10-19T07:40:38;26.17;;;18.63;;
5297;SDS011;14738;42.668;23.250;2023-10-19T07:43:04;21.43;;;18.40;;
5297;SDS011;14738;42.668;23.250;2023-10-19T07:45:30;21.93;;;17.53;;
5297;SDS011;14738;42.668;23.250;2023-10-19T07:47:57;20.33;;;17.47;;
5297;SDS011;14738;42.668;23.250;2023-10-19T07:50:31;22.03;;;18.07;;
5297;SDS011;14738;42.668;23.250;2023-10-19T07:53:00;19.00;;;16.77;;
5297;SDS011;14738;42.668;23.250;2023-10-19T07:55:26;18.70;;;16.33;;
5297;SDS011;14738;42.668;23.250;2023-10-19T07:57:52;21.10;;;16.33;;
5297;SDS011;14738;42.668;23.250;2023-10-19T08:00:18;20.40;;;16.47;;
5297;SDS011;14738;42.668;23.250;2023-10-19T08:02:44;22.40;;;15.83;;
5297;SDS011;14738;42.668;23.250;2023-10-19T08:05:11;24.43;;;17.10;;
5297;SDS011;14738;42.668;23.250;2023-10-19T08:07:40;21.13;;;16.10;;
5297;SDS011;14738;42.668;23.250;2023-10-19T08:10:08;18.83;;;15.77;;
5297;SDS011;14738;42.668;23.250;2023-10-19T08:12:35;23.53;;;16.17;;
5297;SDS011;14738;42.668;23.250;2023-10-19T08:15:01;24.63;;;18.17;;
5297;SDS011;14738;42.668;23.250;2023-10-19T08:17:27;24.50;;;17.67;;
5297;SDS011;14738;42.668;23.250;2023-10-19T08:19:52;21.00;;;17.60;;
5297;SDS011;14738;42.668;23.250;2023-10-19T08:22:18;21.73;;;15.70;;
5297;SDS011;14738;42.668;23.250;2023-10-19T08:24:44;22.37;;;17.83;;
5297;SDS011;14738;42.668;23.250;2023-10-19T08:27:10;21.93;;;17.80;;
5297;SDS011;14738;42.668;23.250;2023-10-19T08:29:37;21.47;;;16.57;;
5297;SDS011;14738;42.668;23.250;2023-10-19T08:32:03;23.43;;;17.30;;
5297;SDS011;14738;42.668;23.250;2023-10-19T08:34:29;24.03;;;17.93;;
5297;SDS011;14738;42.668;23.250;2023-10-19T08:37:00;21.40;;;17.60;;
5297;SDS011;14738;42.668;23.250;2023-10-19T08:39:25;23.97;;;17.70;;
5297;SDS011;14738;42.668;23.250;2023-10-19T08:41:52;22.00;;;18.77;;
5297;SDS011;14738;42.668;23.250;2023-10-19T08:44:19;24.23;;;18.60;;
5297;SDS011;14738;42.668;23.250;2023-10-19T08:46:45;20.57;;;17.03;;
5297;SDS011;14738;42.668;23.250;2023-10-19T08:49:12;19.80;;;16.00;;
5297;SDS011;14738;42.668;23.250;2023-10-19T08:51:39;19.70;;;16.53;;
5297;SDS011;14738;42.668;23.250;2023-10-19T08:54:09;25.93;;;16.40;;
5297;SDS011;14738;42.668;23.250;2023-10-19T08:56:36;18.87;;;15.80;;
5297;SDS011;14738;42.668;23.250;2023-10-19T08:59:02;20.33;;;16.13;;
5297;SDS011;14738;42.668;23.250;2023-10-19T09:01:27;20.53;;;16.50;;
5297;SDS011;14738;42.668;23.250;2023-10-19T09:03:57;21.53;;;18.00;;
5297;SDS011;14738;42.668;23.250;2023-10-19T09:06:25;24.00;;;18.27;;
5297;SDS011;14738;42.668;23.250;2023-10-19T09:08:51;23.77;;;19.00;;
5297;SDS011;14738;42.668;23.250;2023-10-19T09:11:16;26.53;;;19.97;;
5297;SDS011;14738;42.668;23.250;2023-10-19T09:13:46;23.10;;;18.57;;
5297;SDS011;14738;42.668;23.250;2023-10-19T09:16:16;24.10;;;17.47;;
5297;SDS011;14738;42.668;23.250;2023-10-19T09:18:43;22.80;;;17.90;;
5297;SDS011;14738;42.668;23.250;2023-10-19T09:21:14;20.97;;;16.03;;
5297;SDS011;14738;42.668;23.250;2023-10-19T09:23:49;18.37;;;14.13;;
5297;SDS011;14738;42.668;23.250;2023-10-19T09:26:19;15.30;;;12.73;;
5297;SDS011;14738;42.668;23.250;2023-10-19T09:28:47;13.90;;;12.40;;
5297;SDS011;14738;42.668;23.250;2023-10-19T09:31:13;15.80;;;12.47;;
5297;SDS011;14738;42.668;23.250;2023-10-19T09:33:41;14.03;;;12.47;;
5297;SDS011;14738;42.668;23.250;2023-10-19T09:36:12;13.93;;;11.43;;
5297;SDS011;14738;42.668;23.250;2023-10-19T09:38:47;12.33;;;11.13;;
5297;SDS011;14738;42.668;23.250;2023-10-19T09:41:21;11.57;;;9.43;;
5297;SDS011;14738;42.668;23.250;2023-10-19T09:43:47;13.30;;;11.43;;
5297;SDS011;14738;42.668;23.250;2023-10-19T09:46:33;13.30;;;11.30;;
5297;SDS011;14738;42.668;23.250;2023-10-19T09:49:04;12.23;;;11.03;;
5297;SDS011;14738;42.668;23.250;2023-10-19T09:51:30;10.73;;;9.60;;
5297;SDS011;14738;42.668;23.250;2023-10-19T09:54:01;11.33;;;9.67;;
5297;SDS011;14738;42.668;23.250;2023-10-19T09:56:43;10.90;;;9.60;;
5297;SDS011;14738;42.668;23.250;2023-10-19T10:02:15;11.13;;;9.87;;
5297;SDS011;14738;42.668;23.250;2023-10-19T10:04:42;10.40;;;9.40;;
5297;SDS011;14738;42.668;23.250;2023-10-19T10:07:10;10.33;;;9.30;;
5297;SDS011;14738;42.668;23.250;2023-10-19T10:09:39;9.70;;;8.70;;
5297;SDS011;14738;42.668;23.250;2023-10-19T10:12:30;9.40;;;8.50;;
5297;SDS011;14738;42.668;23.250;2023-10-19T10:17:26;10.83;;;9.27;;
5297;SDS011;14738;42.668;23.250;2023-10-19T10:19:56;12.10;;;10.00;;
5297;SDS011;14738;42.668;23.250;2023-10-19T10:22:44;10.30;;;8.60;;
5297;SDS011;14738;42.668;23.250;2023-10-19T10:25:30;9.93;;;8.93;;
5297;SDS011;14738;42.668;23.250;2023-10-19T10:28:19;15.00;;;8.40;;
5297;SDS011;14738;42.668;23.250;2023-10-19T10:33:50;14.23;;;9.50;;
5297;SDS011;14738;42.668;23.250;2023-10-19T10:36:17;10.60;;;8.70;;
5297;SDS011;14738;42.668;23.250;2023-10-19T10:38:44;9.40;;;8.40;;
5297;SDS011;14738;42.668;23.250;2023-10-19T10:41:10;8.83;;;8.03;;
5297;SDS011;14738;42.668;23.250;2023-10-19T10:43:56;10.70;;;9.57;;
5297;SDS011;14738;42.668;23.250;2023-10-19T10:46:23;14.70;;;10.03;;
5297;SDS011;14738;42.668;23.250;2023-10-19T10:48:50;10.67;;;8.60;;
5297;SDS011;14738;42.668;23.250;2023-10-19T10:51:26;11.93;;;10.67;;
5297;SDS011;14738;42.668;23.250;2023-10-19T10:53:54;10.07;;;8.97;;
5297;SDS011;14738;42.668;23.250;2023-10-19T10:56:20;10.30;;;8.77;;
5297;SDS011;14738;42.668;23.250;2023-10-19T10:58:47;9.30;;;8.40;;
5297;SDS011;14738;42.668;23.250;2023-10-19T11:01:12;11.90;;;9.13;;
5297;SDS011;14738;42.668;23.250;2023-10-19T11:03:39;10.77;;;9.60;;
5297;SDS011;14738;42.668;23.250;2023-10-19T11:06:09;13.50;;;9.03;;
5297;SDS011;14738;42.668;23.250;2023-10-19T11:08:35;10.73;;;9.60;;
5297;SDS011;14738;42.668;23.250;2023-10-19T11:11:02;10.10;;;9.10;;
5297;SDS011;14738;42.668;23.250;2023-10-19T11:13:29;11.10;;;9.73;;
5297;SDS011;14738;42.668;23.250;2023-10-19T11:15:58;13.07;;;9.53;;
5297;SDS011;14738;42.668;23.250;2023-10-19T11:18:30;11.10;;;10.00;;
5297;SDS011;14738;42.668;23.250;2023-10-19T11:21:08;10.20;;;9.27;;
5297;SDS011;14738;42.668;23.250;2023-10-19T11:23:41;10.90;;;8.83;;
5297;SDS011;14738;42.668;23.250;2023-10-19T11:26:12;11.60;;;9.00;;
5297;SDS011;14738;42.668;23.250;2023-10-19T11:28:39;11.47;;;9.93;;
5297;SDS011;14738;42.668;23.250;2023-10-19T11:33:37;9.47;;;8.50;;
5297;SDS011;14738;42.668;23.250;2023-10-19T11:36:03;8.70;;;7.80;;
5297;SDS011;14738;42.668;23.250;2023-10-19T11:38:29;9.50;;;8.60;;
5297;SDS011;14738;42.668;23.250;2023-10-19T11:40:55;7.70;;;7.10;;
5297;SDS011;14738;42.668;23.250;2023-10-19T11:43:20;9.70;;;7.40;;
5297;SDS011;14738;42.668;23.250;2023-10-19T11:45:45;9.60;;;8.57;;
5297;SDS011;14738;42.668;23.250;2023-10-19T11:48:11;10.43;;;8.77;;
5297;SDS011;14738;42.668;23.250;2023-10-19T11:50:36;8.87;;;8.07;;
5297;SDS011;14738;42.668;23.250;2023-10-19T11:53:02;10.63;;;8.47;;
5297;SDS011;14738;42.668;23.250;2023-10-19T11:55:28;11.57;;;8.57;;
5297;SDS011;14738;42.668;23.250;2023-10-19T11:57:54;8.07;;;7.30;;
5297;SDS011;14738;42.668;23.250;2023-10-19T12:00:19;11.10;;;7.90;;
5297;SDS011;14738;42.668;23.250;2023-10-19T12:02:49;9.70;;;8.73;;
5297;SDS011;14738;42.668;23.250;2023-10-19T12:05:16;9.40;;;7.30;;
5297;SDS011;14738;42.668;23.250;2023-10-19T12:07:42;11.63;;;8.50;;
5297;SDS011;14738;42.668;23.250;2023-10-19T12:10:10;7.80;;;7.00;;
5297;SDS011;14738;42.668;23.250;2023-10-19T12:12:36;9.30;;;7.87;;
5297;SDS011;14738;42.668;23.250;2023-10-19T12:15:02;8.07;;;7.30;;
5297;SDS011;14738;42.668;23.250;2023-10-19T12:17:30;7.90;;;7.13;;
5297;SDS011;14738;42.668;23.250;2023-10-19T12:19:56;10.40;;;8.13;;
5297;SDS011;14738;42.668;23.250;2023-10-19T12:22:21;8.03;;;7.20;;
5297;SDS011;14738;42.668;23.250;2023-10-19T12:24:47;8.77;;;7.93;;
5297;SDS011;14738;42.668;23.250;2023-10-19T12:27:13;10.00;;;7.70;;
5297;SDS011;14738;42.668;23.250;2023-10-19T12:29:39;7.97;;;7.13;;
5297;SDS011;14738;42.668;23.250;2023-10-19T12:32:05;7.73;;;6.97;;
5297;SDS011;14738;42.668;23.250;2023-10-19T12:34:31;7.77;;;6.97;;
5297;SDS011;14738;42.668;23.250;2023-10-19T12:36:58;9.90;;;7.20;;
5297;SDS011;14738;42.668;23.250;2023-10-19T12:39:24;8.10;;;7.03;;
5297;SDS011;14738;42.668;23.250;2023-10-19T12:42:22;7.97;;;7.20;;
5297;SDS011;14738;42.668;23.250;2023-10-19T12:44:48;8.07;;;7.23;;
5297;SDS011;14738;42.668;23.250;2023-10-19T12:47:13;9.20;;;7.10;;
5297;SDS011;14738;42.668;23.250;2023-10-19T12:49:41;7.93;;;7.17;;
5297;SDS011;14738;42.668;23.250;2023-10-19T12:52:10;8.10;;;7.30;;
5297;SDS011;14738;42.668;23.250;2023-10-19T12:54:35;7.30;;;6.60;;
5297;SDS011;14738;42.668;23.250;2023-10-19T12:57:02;8.40;;;6.50;;
5297;SDS011;14738;42.668;23.250;2023-10-19T12:59:29;7.93;;;6.43;;
5297;SDS011;14738;42.668;23.250;2023-10-19T13:01:55;6.80;;;6.10;;
5297;SDS011;14738;42.668;23.250;2023-10-19T13:04:24;8.13;;;7.33;;
5297;SDS011;14738;42.668;23.250;2023-10-19T13:06:50;7.80;;;7.00;;
5297;SDS011;14738;42.668;23.250;2023-10-19T13:09:17;7.53;;;6.70;;
5297;SDS011;14738;42.668;23.250;2023-10-19T13:11:47;9.60;;;7.77;;
5297;SDS011;14738;42.668;23.250;2023-10-19T13:14:16;11.33;;;7.33;;
5297;SDS011;14738;42.668;23.250;2023-10-19T13:16:42;7.47;;;6.77;;
5297;SDS011;14738;42.668;23.250;2023-10-19T13:19:08;14.07;;;7.07;;
5297;SDS011;14738;42.668;23.250;2023-10-19T13:21:41;8.40;;;7.60;;
5297;SDS011;14738;42.668;23.250;2023-10-19T13:24:07;9.83;;;6.40;;
5297;SDS011;14738;42.668;23.250;2023-10-19T13:26:33;9.93;;;6.40;;
5297;SDS011;14738;42.668;23.250;2023-10-19T13:28:59;7.30;;;6.37;;
5297;SDS011;14738;42.668;23.250;2023-10-19T13:31:25;8.77;;;6.50;;
5297;SDS011;14738;42.668;23.250;2023-10-19T13:33:51;11.80;;;6.10;;
5297;SDS011;14738;42.668;23.250;2023-10-19T13:36:17;6.90;;;6.30;;
5297;SDS011;14738;42.668;23.250;2023-10-19T13:38:44;7.10;;;6.40;;
5297;SDS011;14738;42.668;23.250;2023-10-19T13:41:10;7.00;;;6.40;;
5297;SDS011;14738;42.668;23.250;2023-10-19T13:43:36;6.97;;;6.27;;
5297;SDS011;14738;42.668;23.250;2023-10-19T13:46:02;9.63;;;8.00;;
5297;SDS011;14738;42.668;23.250;2023-10-19T13:48:28;8.30;;;6.80;;
5297;SDS011;14738;42.668;23.250;2023-10-19T13:50:53;8.40;;;7.70;;
5297;SDS011;14738;42.668;23.250;2023-10-19T13:53:25;8.10;;;6.87;;
5297;SDS011;14738;42.668;23.250;2023-10-19T13:55:51;8.00;;;7.27;;
5297;SDS011;14738;42.668;23.250;2023-10-19T13:58:16;8.33;;;6.43;;
5297;SDS011;14738;42.668;23.250;2023-10-19T14:00:42;11.83;;;6.97;;
5297;SDS011;14738;42.668;23.250;2023-10-19T14:03:10;7.07;;;6.17;;
5297;SDS011;14738;42.668;23.250;2023-10-19T14:05:41;7.80;;;7.10;;
5297;SDS011;14738;42.668;23.250;2023-10-19T14:08:12;7.97;;;6.60;;
5297;SDS011;14738;42.668;23.250;2023-10-19T14:10:39;7.80;;;7.10;;
5297;SDS011;14738;42.668;23.250;2023-10-19T14:13:06;7.97;;;7.00;;
5297;SDS011;14738;42.668;23.250;2023-10-19T14:15:36;14.77;;;7.17;;
5297;SDS011;14738;42.668;23.250;2023-10-19T14:18:03;9.00;;;7.00;;
5297;SDS011;14738;42.668;23.250;2023-10-19T14:20:29;7.80;;;7.10;;
5297;SDS011;14738;42.668;23.250;2023-10-19T14:22:55;9.50;;;8.10;;
5297;SDS011;14738;42.668;23.250;2023-10-19T14:25:21;14.07;;;6.60;;
5297;SDS011;14738;42.668;23.250;2023-10-19T14:27:51;8.03;;;7.23;;
5297;SDS011;14738;42.668;23.250;2023-10-19T14:30:23;7.33;;;6.57;;
5297;SDS011;14738;42.668;23.250;2023-10-19T14:32:49;7.00;;;6.40;;
5297;SDS011;14738;42.668;23.250;2023-10-19T14:35:16;8.67;;;7.77;;
5297;SDS011;14738;42.668;23.250;2023-10-19T14:37:46;7.70;;;7.00;;
5297;SDS011;14738;42.668;23.250;2023-10-19T14:40:15;7.20;;;6.60;;
5297;SDS011;14738;42.668;23.250;2023-10-19T14:42:49;9.93;;;7.00;;
5297;SDS011;14738;42.668;23.250;2023-10-19T14:45:19;7.63;;;6.80;;
5297;SDS011;14738;42.668;23.250;2023-10-19T14:47:51;12.23;;;7.40;;
5297;SDS011;14738;42.668;23.250;2023-10-19T14:50:18;8.60;;;7.43;;